Time;durP1;ratioP1;P1;durP2;ratioP2;P2;SDS_P1;SDS_P2;PMS_P1;PMS_P2;Temp;Humidity;BMP_temperature;BMP_pressure;BME280_temperature;BME280_humidity;BME280_pressure;Samples;Min_cycle;Max_cycle;Signal;HPM_P1;HPM_P2
2021/08/22 00:04:26;;;;;;;9.48;8.88;;;;;;;16.61;76.52;100168.31;10552741;28;20404;-82
2021/08/22 00:09:28;;;;;;;9.93;9.32;;;;;;;16.57;76.53;100164.97;10578657;28;20048;-79
2021/08/22 00:14:29;;;;;;;9.75;9.15;;;;;;;16.60;76.47;100167.47;10564560;28;20048;-79
2021/08/22 00:19:31;;;;;;;8.98;8.38;;;;;;;16.47;76.94;100166.41;10584290;28;20076;-78
2021/08/22 00:24:32;;;;;;;10.07;9.40;;;;;;;16.28;77.15;100165.66;10583550;28;20055;-78
2021/08/22 00:29:34;;;;;;;10.13;9.32;;;;;;;16.21;76.94;100159.84;10583343;28;20048;-77
2021/08/22 00:34:36;;;;;;;10.07;9.38;;;;;;;16.13;77.46;100148.78;10564266;28;20056;-78
2021/08/22 00:39:37;;;;;;;8.05;7.45;;;;;;;16.10;77.79;100151.59;10583995;28;20048;-79
2021/08/22 00:44:39;;;;;;;9.63;8.80;;;;;;;16.04;78.09;100136.84;10581237;28;20051;-78
2021/08/22 00:49:40;;;;;;;9.45;8.80;;;;;;;16.05;77.73;100135.91;10555416;28;20028;-79
2021/08/22 00:54:42;;;;;;;9.45;8.63;;;;;;;16.09;77.25;100134.81;10597823;28;20056;-81
2021/08/22 00:59:45;;;;;;;7.85;7.35;;;;;;;16.09;76.97;100129.50;10595232;28;20059;-79
2021/08/22 01:05:05;;;;;;;8.43;7.72;;;;;;;16.13;76.59;100131.06;10589479;28;20048;-79
2021/08/22 01:10:10;;;;;;;7.70;7.20;;;;;;;16.17;76.69;100126.47;10560093;28;20041;-81
2021/08/22 01:15:13;;;;;;;7.30;6.80;;;;;;;16.24;76.44;100122.53;10562893;28;20094;-82
2021/08/22 01:20:34;;;;;;;7.43;6.93;;;;;;;16.17;76.98;100122.97;10562172;28;20043;-81
2021/08/22 01:25:39;;;;;;;7.35;6.82;;;;;;;16.17;76.72;100115.00;10526186;28;20057;-80
2021/08/22 01:30:46;;;;;;;6.82;6.40;;;;;;;16.20;76.61;100112.16;10525815;28;20040;-80
2021/08/22 01:35:47;;;;;;;7.30;6.78;;;;;;;16.24;76.32;100103.97;10560552;28;20044;-80
2021/08/22 01:40:51;;;;;;;9.30;8.50;;;;;;;16.15;76.79;100107.97;10542585;28;20047;-82
2021/08/22 01:45:56;;;;;;;8.55;7.95;;;;;;;16.28;76.04;100105.50;10571715;28;20095;-81
2021/08/22 01:50:59;;;;;;;7.57;7.03;;;;;;;16.16;76.48;100092.94;10594814;28;20050;-80
2021/08/22 01:56:01;;;;;;;7.90;7.30;;;;;;;16.24;76.40;100096.00;10594271;28;20047;-79
2021/08/22 02:01:03;;;;;;;6.97;6.57;;;;;;;16.19;76.21;100091.91;10585033;28;20052;-82
2021/08/22 02:06:20;;;;;;;7.88;7.22;;;;;;;16.26;75.97;100090.63;10560416;28;20036;-83
2021/08/22 02:11:24;;;;;;;;;;;;;;;16.20;75.67;100078.53;10558776;28;20431;-79
2021/08/22 02:16:28;;;;;;;7.00;6.50;;;;;;;15.86;76.87;100079.50;10556700;28;19920;-81
2021/08/22 02:21:31;;;;;;;6.57;6.13;;;;;;;15.78;77.12;100076.41;10556111;28;20472;-81
2021/08/22 02:26:33;;;;;;;7.20;6.60;;;;;;;15.81;76.46;100078.91;10556484;28;20405;-82
2021/08/22 02:31:35;;;;;;;7.45;6.95;;;;;;;15.92;76.39;100081.81;10556298;28;20036;-81
2021/08/22 02:36:38;;;;;;;7.28;6.68;;;;;;;15.86;75.70;100072.41;10556517;28;20128;-81
2021/08/22 02:41:39;;;;;;;6.53;6.13;;;;;;;15.83;75.79;100066.41;10520687;28;20044;-81
2021/08/22 02:46:41;;;;;;;6.28;5.78;;;;;;;15.87;75.58;100066.16;10579404;28;20051;-81
2021/08/22 02:51:43;;;;;;;6.18;5.78;;;;;;;16.01;74.61;100065.44;10540631;28;20056;-80
2021/08/22 02:56:44;;;;;;;5.72;5.22;;;;;;;16.35;72.84;100068.91;10556189;28;20055;-82
2021/08/22 03:01:46;;;;;;;6.35;5.75;;;;;;;16.52;71.89;100058.22;10566235;28;20062;-81
2021/08/22 03:06:48;;;;;;;5.70;5.30;;;;;;;16.48;72.09;100056.69;10560209;28;20036;-81
2021/08/22 03:11:49;;;;;;;6.22;5.63;;;;;;;16.46;72.02;100055.03;10535175;28;20081;-83
2021/08/22 03:16:51;;;;;;;5.80;5.40;;;;;;;16.65;70.83;100045.97;10536402;28;20493;-82
2021/08/22 03:21:53;;;;;;;5.32;4.93;;;;;;;16.72;71.10;100043.84;10534860;28;20042;-81
2021/08/22 03:26:55;;;;;;;5.72;5.32;;;;;;;16.70;70.56;100045.72;10553396;28;20479;-81
2021/08/22 03:31:56;;;;;;;5.78;5.32;;;;;;;16.81;70.19;100045.13;10533754;28;20044;-83
2021/08/22 03:36:58;;;;;;;5.13;4.68;;;;;;;16.84;69.78;100043.16;10534815;28;20052;-82
2021/08/22 03:42:00;;;;;;;5.35;4.95;;;;;;;17.04;68.71;100035.81;10551704;28;20063;-81
2021/08/22 03:47:01;;;;;;;4.88;4.53;;;;;;;16.88;69.49;100041.19;10561301;28;20047;-81
2021/08/22 03:52:03;;;;;;;5.05;4.55;;;;;;;16.85;69.19;100044.00;10534161;28;20079;-81
2021/08/22 03:57:04;;;;;;;5.18;4.78;;;;;;;16.86;69.01;100037.75;10552377;28;20052;-81
2021/08/22 04:02:06;;;;;;;5.50;5.20;;;;;;;16.98;68.77;100031.72;10551833;28;20047;-80
2021/08/22 04:07:35;;;;;;;5.03;4.72;;;;;;;16.88;68.87;100020.78;10533715;28;20135;-80
2021/08/22 04:12:37;;;;;;;4.93;4.53;;;;;;;16.84;68.88;100021.91;10551788;28;20044;-83
2021/08/22 04:17:39;;;;;;;5.55;5.15;;;;;;;16.89;68.64;100021.66;10551882;28;20090;-80
2021/08/22 04:22:41;;;;;;;4.75;4.40;;;;;;;16.88;68.58;100019.94;10557580;28;20047;-81
2021/08/22 04:27:42;;;;;;;5.10;4.68;;;;;;;16.75;69.30;100008.31;10574275;28;20040;-80
2021/08/22 04:32:44;;;;;;;5.68;5.18;;;;;;;16.95;68.56;100010.66;10565142;28;20032;-81
2021/08/22 04:37:46;;;;;;;5.00;4.70;;;;;;;16.88;68.56;100007.53;10528893;28;20063;-81
2021/08/22 04:42:48;;;;;;;5.10;4.75;;;;;;;16.76;69.34;99999.41;10564058;28;20036;-81
2021/08/22 04:47:51;;;;;;;5.05;4.65;;;;;;;16.93;68.65;99998.44;10564610;28;20043;-81
2021/08/22 04:52:52;;;;;;;4.47;4.18;;;;;;;16.98;68.38;99996.34;10566006;28;20491;-80
2021/08/22 04:57:55;;;;;;;9.35;4.53;;;;;;;17.03;68.44;99987.16;10566511;28;20044;-80
2021/08/22 05:02:56;;;;;;;6.72;4.93;;;;;;;17.09;68.31;99984.16;10568037;28;20040;-79
2021/08/22 05:07:59;;;;;;;5.43;3.90;;;;;;;17.28;67.69;99988.38;10573717;28;20474;-79
2021/08/22 05:13:01;;;;;;;6.03;4.38;;;;;;;17.44;67.27;99983.81;10588906;28;20056;-80
2021/08/22 05:18:03;;;;;;;5.05;4.57;;;;;;;17.40;68.65;99969.88;10556077;28;20048;-78
2021/08/22 05:23:04;;;;;;;4.13;3.83;;;;;;;17.70;67.21;99976.06;10572663;28;20040;-81
2021/08/22 05:28:06;;;;;;;5.65;5.15;;;;;;;18.09;65.16;99981.56;10574366;28;20051;-81
2021/08/22 05:33:08;;;;;;;6.60;4.70;;;;;;;18.00;65.80;99982.13;10579003;28;20048;-80
2021/08/22 05:38:09;;;;;;;4.93;4.63;;;;;;;18.21;64.92;99982.59;10566459;28;20516;-80
2021/08/22 05:43:11;;;;;;;4.30;3.90;;;;;;;18.39;65.13;99980.53;10590250;28;20051;-78
2021/08/22 05:48:12;;;;;;;3.78;3.47;;;;;;;18.34;64.70;99980.00;10588346;28;20048;-80
2021/08/22 05:53:14;;;;;;;4.32;3.92;;;;;;;18.42;64.58;99988.34;10586550;28;20044;-80
2021/08/22 05:58:15;;;;;;;4.82;4.43;;;;;;;18.22;65.20;99984.28;10584427;28;20066;-80
2021/08/22 06:03:17;;;;;;;4.75;4.45;;;;;;;18.13;65.78;99992.84;10584796;28;20142;-80
2021/08/22 06:08:19;;;;;;;4.97;4.63;;;;;;;17.89;67.47;99984.63;10578150;28;20527;-79
2021/08/22 06:13:20;;;;;;;4.60;3.95;;;;;;;17.94;67.30;99987.84;10555597;28;20040;-79
2021/08/22 06:18:22;;;;;;;4.57;4.28;;;;;;;17.75;67.42;99989.94;10553598;28;20101;-79
2021/08/22 06:23:23;;;;;;;4.53;4.13;;;;;;;17.76;68.11;99997.00;10554824;28;20408;-79
2021/08/22 06:28:25;;;;;;;4.88;4.45;;;;;;;17.84;68.24;99995.56;10555953;28;20048;-78
2021/08/22 06:33:26;;;;;;;4.05;3.70;;;;;;;17.97;69.20;99997.44;10551148;28;20044;-80
2021/08/22 06:38:29;;;;;;;4.72;4.35;;;;;;;17.80;69.35;100011.81;10544671;28;20044;-78
2021/08/22 06:43:31;;;;;;;4.45;4.15;;;;;;;17.95;69.16;100012.66;10565926;28;20078;-79
2021/08/22 06:48:32;;;;;;;8.13;4.57;;;;;;;18.41;68.79;100027.38;10569360;28;20048;-83
2021/08/22 06:53:34;;;;;;;5.25;4.85;;;;;;;18.35;69.91;100035.75;10571294;28;20036;-82
2021/08/22 06:58:35;;;;;;;5.07;4.68;;;;;;;18.48;69.41;100048.28;10537786;28;20052;-84
2021/08/22 07:03:37;;;;;;;4.30;4.00;;;;;;;18.50;68.10;100041.91;10572619;28;20043;-83
2021/08/22 07:08:39;;;;;;;4.45;4.15;;;;;;;18.83;65.97;100030.91;10571337;28;20040;-81
2021/08/22 07:13:41;;;;;;;5.07;4.68;;;;;;;19.05;66.19;100035.66;10572249;28;20067;-80
2021/08/22 07:18:42;;;;;;;4.50;4.10;;;;;;;19.54;65.68;100036.81;10580308;28;20069;-79
2021/08/22 07:23:44;;;;;;;5.20;4.45;;;;;;;20.04;63.71;100030.63;10581532;28;20526;-78
2021/08/22 07:28:46;;;;;;;3.65;3.38;;;;;;;20.01;65.31;100024.66;10581508;28;20051;-80
2021/08/22 07:33:47;;;;;;;4.00;3.70;;;;;;;20.32;64.22;100036.66;10563802;28;20048;-81
2021/08/22 07:38:49;;;;;;;4.63;3.97;;;;;;;20.34;64.89;100029.41;10582189;28;20073;-81
2021/08/22 07:43:51;;;;;;;5.18;4.78;;;;;;;20.20;66.73;100025.06;10560386;28;20048;-81
2021/08/22 07:48:52;;;;;;;4.47;4.07;;;;;;;20.41;66.84;100017.31;10556471;28;20055;-82
2021/08/22 07:53:54;;;;;;;4.20;3.80;;;;;;;20.42;66.87;100027.88;10566432;28;20053;-80
2021/08/22 07:58:56;;;;;;;4.90;4.40;;;;;;;20.57;67.63;100027.75;10573300;28;20069;-80
2021/08/22 08:03:58;;;;;;;4.68;4.30;;;;;;;20.77;67.72;100020.97;10589212;28;20057;-79
2021/08/22 08:09:00;;;;;;;5.38;4.07;;;;;;;20.91;67.38;100018.09;10566015;28;20052;-81
2021/08/22 08:14:02;;;;;;;4.65;4.25;;;;;;;20.88;68.29;100023.66;10545890;28;20064;-81
2021/08/22 08:19:06;;;;;;;5.60;4.00;;;;;;;20.91;67.89;100031.47;10582728;28;20049;-78
2021/08/22 08:24:08;;;;;;;5.30;4.80;;;;;;;21.05;66.95;100033.94;10570465;28;20044;-80
2021/08/22 08:29:10;;;;;;;5.53;4.63;;;;;;;21.17;66.71;100033.03;10566542;28;20073;-79
2021/08/22 08:34:11;;;;;;;5.55;4.72;;;;;;;21.19;67.11;100034.72;10580086;28;20044;-79
2021/08/22 08:39:13;;;;;;;5.18;4.47;;;;;;;21.06;67.84;100027.63;10581777;28;20048;-80
2021/08/22 08:44:14;;;;;;;4.85;4.35;;;;;;;21.39;67.25;100034.94;10564539;28;20048;-80
2021/08/22 08:49:25;;;;;;;5.10;4.60;;;;;;;21.45;66.59;100038.97;10575983;28;20044;-80
2021/08/22 08:54:29;;;;;;;5.05;4.65;;;;;;;21.40;66.67;100046.50;10577027;28;20126;-80
2021/08/22 08:59:35;;;;;;;33.53;5.95;;;;;;;21.46;66.13;100040.66;10556533;28;20075;-80
2021/08/22 09:04:49;;;;;;;4.75;4.28;;;;;;;21.49;65.69;100043.09;10574225;28;20036;-80
2021/08/22 09:10:28;;;;;;;5.05;4.57;;;;;;;21.53;65.44;100049.06;10577394;28;20043;-81
2021/08/22 09:16:01;;;;;;;5.07;4.68;;;;;;;21.57;65.64;100055.91;10581075;28;20066;-80
2021/08/22 09:21:09;;;;;;;4.80;4.22;;;;;;;21.66;66.17;100060.53;10563461;28;20127;-81
2021/08/22 09:26:17;;;;;;;4.60;4.30;;;;;;;21.53;66.87;100060.63;10580542;28;20048;-80
2021/08/22 09:31:56;;;;;;;5.50;5.10;;;;;;;21.33;68.59;100061.28;10560305;28;20062;-80
2021/08/22 09:37:29;;;;;;;11.07;4.68;;;;;;;21.26;69.42;100058.22;10575675;28;20047;-80
2021/08/22 09:42:59;;;;;;;5.10;4.63;;;;;;;21.38;69.28;100051.09;10540972;28;20060;-80
2021/08/22 09:48:38;;;;;;;4.50;4.10;;;;;;;21.49;70.30;100048.44;10577914;28;20516;-80
2021/08/22 09:54:05;;;;;;;4.95;4.55;;;;;;;21.76;69.75;100053.47;10578246;28;20044;-82
2021/08/22 09:59:20;;;;;;;5.40;4.90;;;;;;;22.36;66.35;100048.78;10557056;28;20048;-83
2021/08/22 10:04:37;;;;;;;5.20;4.80;;;;;;;22.26;68.02;100032.59;10578450;28;20044;-82
2021/08/22 10:10:02;;;;;;;5.78;5.30;;;;;;;22.41;66.77;100047.44;10578767;28;20043;-80
2021/08/22 10:15:10;;;;;;;5.22;4.72;;;;;;;22.61;65.39;100064.56;10578458;28;20108;-80
2021/08/22 10:20:12;;;;;;;5.95;5.32;;;;;;;22.75;65.08;100059.91;10559861;28;20048;-81
2021/08/22 10:25:19;;;;;;;4.50;4.20;;;;;;;23.11;64.15;100048.84;10560629;28;20112;-80
2021/08/22 10:30:22;;;;;;;4.38;3.97;;;;;;;22.99;65.39;100062.44;10578875;28;20056;-81
2021/08/22 10:35:31;;;;;;;3.97;3.55;;;;;;;23.39;61.41;100057.25;10576730;28;20048;-81
2021/08/22 10:40:34;;;;;;;2.88;2.67;;;;;;;23.76;55.68;100065.72;10560530;28;20047;-79
2021/08/22 10:45:40;;;;;;;2.88;2.67;;;;;;;23.71;56.38;100069.78;10559013;28;20043;-80
2021/08/22 10:50:57;;;;;;;2.20;2.00;;;;;;;23.15;54.49;100076.25;10547026;28;20056;-81
2021/08/22 10:56:19;;;;;;;1.85;1.63;;;;;;;22.65;55.46;100082.09;10548020;28;20039;-78
2021/08/22 11:01:31;;;;;;;3.83;2.17;;;;;;;22.33;60.93;100059.75;10562014;28;20065;-79
2021/08/22 11:06:51;;;;;;;2.00;1.80;;;;;;;21.98;60.64;100066.03;10567634;28;20062;-80
2021/08/22 11:11:53;;;;;;;2.40;2.20;;;;;;;21.84;62.50;100064.44;10547630;28;20036;-81
2021/08/22 11:16:58;;;;;;;2.10;2.00;;;;;;;21.80;63.06;100064.81;10545973;28;20048;-82
2021/08/22 11:22:00;;;;;;;2.90;2.70;;;;;;;21.82;67.98;100057.50;10561719;28;20032;-82
2021/08/22 11:27:01;;;;;;;2.70;2.50;;;;;;;21.62;68.48;100061.75;10560232;28;20055;-80
2021/08/22 11:32:04;;;;;;;2.70;2.50;;;;;;;21.77;68.37;100062.34;10561472;28;20044;-82
2021/08/22 11:37:16;;;;;;;2.10;2.00;;;;;;;22.03;66.79;100063.00;10582007;28;20048;-79
2021/08/22 11:42:20;;;;;;;2.92;2.72;;;;;;;22.26;66.27;100053.16;10565820;28;20028;-82
2021/08/22 11:47:22;;;;;;;3.33;2.35;;;;;;;22.92;64.37;100059.38;10581207;28;20627;-81
2021/08/22 11:52:24;;;;;;;3.50;3.10;;;;;;;23.16;58.43;100041.28;10549263;28;20048;-82
2021/08/22 11:57:28;;;;;;;4.53;2.20;;;;;;;23.48;61.92;100047.56;10567535;28;20382;-81
2021/08/22 12:02:30;;;;;;;2.58;1.80;;;;;;;23.74;56.91;100034.63;10566016;28;20053;-84
2021/08/22 12:07:32;;;;;;;2.20;2.00;;;;;;;23.81;56.93;100033.09;10565854;28;20534;-81
2021/08/22 12:12:40;;;;;;;2.30;2.10;;;;;;;24.08;53.72;100029.81;10568174;28;20046;-81
2021/08/22 12:17:42;;;;;;;2.42;2.22;;;;;;;24.63;53.70;100023.09;10570086;28;20081;-78
2021/08/22 12:23:05;;;;;;;2.35;2.15;;;;;;;25.64;47.79;100000.28;10569596;28;20074;-81
2021/08/22 12:28:27;;;;;;;2.50;2.30;;;;;;;25.24;47.78;100013.94;10546462;28;20048;-81
2021/08/22 12:33:34;;;;;;;2.22;2.13;;;;;;;25.24;48.20;99995.13;10564045;28;20036;-82
2021/08/22 12:38:40;;;;;;;2.47;2.28;;;;;;;24.87;49.05;99997.63;10546117;28;20093;-81
2021/08/22 12:43:41;;;;;;;2.60;2.40;;;;;;;24.69;51.13;99994.81;10579479;28;20085;-80
2021/08/22 12:48:46;;;;;;;2.63;2.42;;;;;;;24.85;50.12;99996.94;10563679;28;20103;-80
2021/08/22 12:53:49;;;;;;;3.33;2.97;;;;;;;24.65;51.36;99985.31;10583858;28;20063;-80
2021/08/22 12:58:52;;;;;;;2.80;2.60;;;;;;;24.83;50.86;99983.63;10580887;28;20046;-80
2021/08/22 13:03:55;;;;;;;2.47;2.38;;;;;;;24.79;50.09;99978.69;10584729;28;20036;-80
2021/08/22 13:08:57;;;;;;;4.28;2.85;;;;;;;24.74;52.11;99981.78;10579711;28;20044;-82
2021/08/22 13:13:59;;;;;;;3.03;2.80;;;;;;;25.16;50.19;99977.00;10579182;28;20078;-80
2021/08/22 13:19:01;;;;;;;2.80;2.60;;;;;;;25.16;49.89;99963.56;10577577;28;20091;-80
2021/08/22 13:24:02;;;;;;;2.85;2.65;;;;;;;24.94;51.08;99968.38;10578815;28;20032;-80
2021/08/22 13:29:05;;;;;;;2.85;2.65;;;;;;;24.78;51.66;99974.28;10579506;28;20131;-79
2021/08/22 13:34:07;;;;;;;3.50;3.28;;;;;;;24.48;53.85;99961.81;10562621;28;20109;-80
2021/08/22 13:39:08;;;;;;;3.22;3.03;;;;;;;24.57;52.71;99951.09;10580544;28;20068;-80
2021/08/22 13:44:10;;;;;;;3.15;2.95;;;;;;;24.51;53.14;99954.34;10588153;28;20044;-80
2021/08/22 13:49:11;;;;;;;3.08;2.78;;;;;;;24.68;52.50;99955.47;10580894;28;20079;-82
2021/08/22 13:54:13;;;;;;;3.42;2.40;;;;;;;24.64;51.27;99952.22;10580518;28;20040;-81
2021/08/22 13:59:14;;;;;;;2.70;2.50;;;;;;;24.61;52.95;99943.59;10584663;28;20036;-81
2021/08/22 14:04:16;;;;;;;2.95;2.75;;;;;;;24.69;52.83;99946.44;10571706;28;20036;-80
2021/08/22 14:09:18;;;;;;;2.65;2.45;;;;;;;24.97;50.73;99939.34;10594597;28;20048;-82
2021/08/22 14:14:19;;;;;;;3.20;3.00;;;;;;;24.71;51.55;99949.84;10576689;28;20051;-81
2021/08/22 14:19:21;;;;;;;2.90;2.70;;;;;;;24.40;51.74;99947.25;10573213;28;20078;-82
2021/08/22 14:24:22;;;;;;;3.22;2.85;;;;;;;24.12;54.27;99937.25;10575175;28;20048;-82
2021/08/22 14:29:24;;;;;;;2.47;2.28;;;;;;;24.44;51.39;99929.03;10572069;28;20069;-82
2021/08/22 14:34:25;;;;;;;2.70;2.50;;;;;;;24.31;51.95;99915.84;10559657;28;20057;-81
2021/08/22 14:39:27;;;;;;;2.90;2.70;;;;;;;24.32;52.00;99906.78;10565030;28;20103;-80
2021/08/22 14:44:29;;;;;;;3.45;2.85;;;;;;;24.31;52.32;99902.41;10580890;28;20069;-79
2021/08/22 14:49:30;;;;;;;4.00;2.75;;;;;;;24.34;52.58;99912.00;10546890;28;20048;-80
2021/08/22 14:54:32;;;;;;;2.83;2.63;;;;;;;24.22;52.88;99934.63;10579322;28;20040;-79
2021/08/22 14:59:34;;;;;;;2.70;2.50;;;;;;;23.77;56.12;99935.03;10578322;28;20069;-80
2021/08/22 15:04:35;;;;;;;3.13;2.85;;;;;;;23.71;57.21;99919.50;10576884;28;20061;-82
2021/08/22 15:09:39;;;;;;;3.83;2.80;;;;;;;23.39;58.36;99921.28;10576669;28;20052;-80
2021/08/22 15:14:45;;;;;;;3.50;3.20;;;;;;;23.55;58.42;99914.56;10553691;28;20071;-81
2021/08/22 15:19:46;;;;;;;9.87;3.50;;;;;;;23.56;59.18;99924.34;10568496;28;20104;-80
2021/08/22 15:24:48;;;;;;;3.05;2.85;;;;;;;23.40;58.28;99920.31;10562939;28;20435;-81
2021/08/22 15:29:50;;;;;;;3.70;3.40;;;;;;;23.25;58.23;99899.34;10562964;28;20115;-81
2021/08/22 15:34:52;;;;;;;4.05;3.30;;;;;;;23.09;59.43;99891.78;10542286;28;20062;-83
2021/08/22 15:39:54;;;;;;;4.15;3.47;;;;;;;23.03;60.24;99903.88;10560475;28;20450;-81
2021/08/22 15:44:56;;;;;;;8.38;3.42;;;;;;;22.99;60.46;99902.44;10558646;28;20050;-82
2021/08/22 15:49:57;;;;;;;4.38;2.88;;;;;;;23.04;59.93;99912.78;10558604;28;20044;-82
2021/08/22 15:54:59;;;;;;;3.50;3.13;;;;;;;22.82;60.79;99916.38;10562180;28;20044;-80
2021/08/22 16:00:05;;;;;;;3.50;3.20;;;;;;;22.79;60.90;99919.31;10559570;28;20093;-83
2021/08/22 16:05:07;;;;;;;7.60;4.50;;;;;;;22.72;61.25;99918.16;10561525;28;20042;-82
2021/08/22 16:10:09;;;;;;;3.42;3.22;;;;;;;22.77;60.06;99916.78;10559296;28;20048;-82
2021/08/22 16:15:11;;;;;;;4.15;3.60;;;;;;;22.53;61.30;99908.94;10561161;28;20397;-81
2021/08/22 16:20:13;;;;;;;3.78;3.47;;;;;;;22.61;61.67;99909.16;10542286;28;20072;-81
2021/08/22 16:25:14;;;;;;;3.95;3.65;;;;;;;22.49;61.89;99918.25;10540452;28;20036;-81
2021/08/22 16:30:17;;;;;;;3.67;3.40;;;;;;;22.39;64.20;99914.63;10561630;28;20044;-82
2021/08/22 16:35:20;;;;;;;8.93;4.35;;;;;;;22.08;66.16;99914.44;10560191;28;20093;-80
2021/08/22 16:40:21;;;;;;;3.67;3.40;;;;;;;22.15;66.35;99923.69;10558720;28;20048;-82
2021/08/22 16:45:23;;;;;;;3.75;3.45;;;;;;;22.14;66.91;99930.03;10560975;28;20117;-82
2021/08/22 16:50:26;;;;;;;4.55;4.20;;;;;;;22.13;69.38;99922.13;10575300;28;20043;-81
2021/08/22 16:55:42;;;;;;;4.78;4.38;;;;;;;21.78;71.38;99925.81;10587564;28;20130;-83
2021/08/22 17:00:47;;;;;;;5.60;5.15;;;;;;;21.95;71.41;99918.22;10589830;28;20050;-81
2021/08/22 17:05:49;;;;;;;5.55;5.10;;;;;;;21.78;71.96;99927.59;10590217;28;20035;-82
2021/08/22 17:15:58;;;;;;;8.63;6.75;;;;;;;21.73;73.70;99917.28;10387414;28;20050;-83
2021/08/22 17:21:00;;;;;;;8.68;8.07;;;;;;;21.70;72.53;99919.38;10356706;28;20042;-83
2021/08/22 17:26:02;;;;;;;13.40;12.60;;;;;;;21.61;72.77;99926.28;10430518;28;20042;-84
2021/08/22 17:31:04;;;;;;;9.48;8.88;;;;;;;21.28;76.08;99933.28;10412994;28;20113;-83
2021/08/22 17:36:06;;;;;;;7.13;6.53;;;;;;;21.05;76.61;99931.53;10427383;28;20041;-83
2021/08/22 17:41:07;;;;;;;6.97;6.43;;;;;;;21.02;77.60;99937.97;10463276;22;20049;-69
2021/08/22 17:46:09;;;;;;;6.93;6.38;;;;;;;21.11;77.79;99929.22;10462673;28;20482;-70
2021/08/22 17:51:10;;;;;;;6.53;6.03;;;;;;;20.90;78.73;99934.41;10444795;28;20103;-70
2021/08/22 17:56:12;;;;;;;5.25;4.85;;;;;;;20.77;75.73;99938.16;10461945;28;20045;-70
2021/08/22 18:01:14;;;;;;;5.95;5.45;;;;;;;20.59;76.00;99951.91;10462105;28;20103;-70
2021/08/22 18:06:18;;;;;;;5.80;5.40;;;;;;;20.45;75.99;99954.69;10461058;28;20052;-70
2021/08/22 18:11:19;;;;;;;6.22;5.82;;;;;;;20.31;77.69;99944.19;10426253;28;20138;-70
2021/08/22 18:16:22;;;;;;;6.35;5.93;;;;;;;20.20;78.30;99962.81;10463137;28;20041;-70
2021/08/22 18:21:24;;;;;;;5.80;5.35;;;;;;;20.15;77.91;99956.00;10460357;28;20111;-70
2021/08/22 18:26:25;;;;;;;5.95;5.55;;;;;;;19.87;79.92;99959.78;10461183;28;20047;-70
2021/08/22 18:31:31;;;;;;;6.72;6.32;;;;;;;19.92;79.17;99978.13;10441850;28;20048;-70
2021/08/22 18:36:33;;;;;;;6.20;5.70;;;;;;;19.75;80.90;99966.03;10441931;28;20107;-70
2021/08/22 18:41:34;;;;;;;5.57;5.18;;;;;;;19.75;80.79;99981.19;10441488;28;20464;-70
2021/08/22 18:46:39;;;;;;;6.55;6.07;;;;;;;19.81;81.06;99980.72;10459697;28;20041;-70
2021/08/22 18:51:41;;;;;;;6.68;6.22;;;;;;;19.57;83.57;99973.47;10460311;28;20064;-70
2021/08/22 18:56:43;;;;;;;6.80;6.40;;;;;;;19.51;83.51;99978.38;10459353;28;20056;-70
2021/08/22 19:01:44;;;;;;;6.50;6.00;;;;;;;19.36;85.06;99982.97;10440556;28;20479;-70
2021/08/22 19:06:46;;;;;;;6.22;5.63;;;;;;;19.25;85.20;99991.66;10458633;28;20041;-70
2021/08/22 19:11:48;;;;;;;6.22;5.82;;;;;;;19.36;83.99;99996.28;10458970;28;20383;-70
2021/08/22 19:16:49;;;;;;;6.03;5.53;;;;;;;19.40;82.66;100011.09;10440241;28;20056;-70
2021/08/22 19:21:51;;;;;;;5.60;5.20;;;;;;;19.28;82.48;100012.78;10457937;28;20053;-70
2021/08/22 19:26:53;;;;;;;5.45;4.97;;;;;;;19.29;81.58;100016.31;10439974;28;20406;-69
2021/08/22 19:31:54;;;;;;;4.85;4.45;;;;;;;19.16;80.56;100017.13;10457323;28;20110;-69
2021/08/22 19:36:56;;;;;;;4.05;3.75;;;;;;;19.13;78.49;100027.16;10457528;28;20502;-69
2021/08/22 19:41:58;;;;;;;4.18;3.78;;;;;;;18.96;79.88;100020.31;10457052;28;20112;-69
2021/08/22 19:46:59;;;;;;;4.03;3.72;;;;;;;18.72;81.02;100012.09;10456567;28;20049;-69
2021/08/22 19:52:04;;;;;;;4.50;4.20;;;;;;;18.48;82.45;100027.84;10438100;28;20055;-70
2021/08/22 19:57:06;;;;;;;4.63;4.25;;;;;;;18.23;86.21;100025.03;10457047;28;20067;-70
2021/08/22 20:02:07;;;;;;;3.53;3.33;;;;;;;18.14;85.81;100029.16;10456294;28;20045;-70
2021/08/22 20:07:14;;;;;;;2.90;2.70;;;;;;;18.19;83.63;100031.50;10457954;28;20560;-70
2021/08/22 20:12:16;;;;;;;4.65;4.25;;;;;;;18.02;85.94;100041.44;10439724;28;20041;-70
2021/08/22 20:17:18;;;;;;;3.90;3.60;;;;;;;17.98;86.76;100031.06;10456421;28;20453;-70
2021/08/22 20:22:20;;;;;;;4.45;3.90;;;;;;;18.04;84.65;100051.97;10455407;28;20106;-69
2021/08/22 20:27:22;;;;;;;4.30;3.90;;;;;;;17.86;87.91;100062.78;10456155;28;20079;-69
2021/08/22 20:32:23;;;;;;;4.30;3.90;;;;;;;17.55;90.00;100053.13;10454890;28;20458;-69
2021/08/22 20:37:27;;;;;;;6.15;3.60;;;;;;;17.55;88.95;100050.47;10455482;28;20052;-69
2021/08/22 20:42:29;;;;;;;6.93;4.40;;;;;;;17.75;88.02;100070.59;10455383;28;20048;-69
2021/08/22 20:47:30;;;;;;;4.72;4.32;;;;;;;17.53;91.12;100064.78;10455000;28;20406;-69
2021/08/22 20:52:34;;;;;;;4.32;3.60;;;;;;;17.38;89.72;100086.03;10455359;28;20048;-69
2021/08/22 20:57:36;;;;;;;4.18;3.88;;;;;;;17.27;91.80;100087.63;10454776;28;20048;-69
2021/08/22 21:02:47;;;;;;;4.15;3.67;;;;;;;17.23;91.81;100081.63;10455057;28;20045;-69
2021/08/22 21:07:49;;;;;;;3.38;3.08;;;;;;;17.44;88.53;100089.25;10462483;28;20114;-69
2021/08/22 21:12:51;;;;;;;2.85;2.65;;;;;;;17.34;89.37;100083.63;10462346;28;20120;-69
2021/08/22 21:17:57;;;;;;;2.67;2.47;;;;;;;17.48;87.41;100081.00;10463337;28;20079;-69
2021/08/22 21:23:01;;;;;;;2.35;2.15;;;;;;;17.39;88.15;100078.91;10444234;28;20517;-70
2021/08/22 21:28:03;;;;;;;2.33;2.13;;;;;;;17.35;85.18;100083.56;10462521;28;20094;-69
2021/08/22 21:33:05;;;;;;;1.70;1.60;;;;;;;17.23;84.77;100067.50;10443716;28;20041;-70
2021/08/22 21:38:07;;;;;;;1.52;1.10;;;;;;;17.04;83.25;100068.53;10461904;28;20490;-71
2021/08/22 21:43:08;;;;;;;1.63;1.33;;;;;;;16.90;84.22;100061.38;10443514;28;20041;-71
2021/08/22 21:48:10;;;;;;;1.92;1.30;;;;;;;16.65;85.53;100058.38;10461391;28;20560;-70
2021/08/22 21:53:12;;;;;;;1.50;0.80;;;;;;;16.70;85.44;100066.09;10461930;28;20108;-70
2021/08/22 21:58:14;;;;;;;2.10;1.33;;;;;;;16.44;87.86;100054.28;10460900;28;20053;-70
2021/08/22 22:03:16;;;;;;;1.40;1.30;;;;;;;16.51;87.76;100053.88;10442630;28;20505;-69
2021/08/22 22:08:17;;;;;;;1.90;1.70;;;;;;;16.57;87.84;100050.84;10460439;28;20095;-70
2021/08/22 22:13:19;;;;;;;2.80;1.50;;;;;;;16.47;88.91;100067.34;10443140;28;20100;-70
2021/08/22 22:18:21;;;;;;;2.55;2.25;;;;;;;16.56;87.54;100078.34;10461184;28;20041;-70
2021/08/22 22:23:22;;;;;;;2.80;2.58;;;;;;;16.58;88.18;100079.09;10460072;28;20041;-70
2021/08/22 22:28:24;;;;;;;2.53;2.33;;;;;;;16.59;87.84;100075.50;10459816;28;20098;-70
2021/08/22 22:33:25;;;;;;;2.88;2.65;;;;;;;16.65;86.77;100069.00;10459538;28;20086;-70
2021/08/22 22:38:27;;;;;;;3.08;2.63;;;;;;;16.69;86.18;100065.25;10459597;28;20040;-71
2021/08/22 22:43:28;;;;;;;2.67;2.47;;;;;;;16.66;85.58;100070.72;10458981;28;20045;-71
2021/08/22 22:48:30;;;;;;;2.80;2.55;;;;;;;16.69;85.41;100069.66;10458978;28;20049;-70
2021/08/22 22:53:31;;;;;;;3.15;2.95;;;;;;;16.62;85.95;100080.63;10460434;28;20158;-70
2021/08/22 22:58:33;;;;;;;3.15;2.95;;;;;;;16.59;86.84;100090.56;10458754;28;20053;-71
2021/08/22 23:03:35;;;;;;;3.17;2.97;;;;;;;16.63;84.79;100085.00;10459107;28;20067;-71
2021/08/22 23:08:37;;;;;;;4.93;4.43;;;;;;;16.59;85.78;100088.75;10458496;28;20048;-71
2021/08/22 23:13:39;;;;;;;4.38;4.07;;;;;;;16.71;85.01;100097.00;10475084;22;20041;-69
2021/08/22 23:18:40;;;;;;;4.25;3.83;;;;;;;16.69;84.69;100101.50;10462634;28;20067;-71
2021/08/22 23:23:42;;;;;;;3.72;3.42;;;;;;;16.72;84.41;100094.28;10446004;28;20049;-70
2021/08/22 23:28:43;;;;;;;2.72;2.53;;;;;;;16.73;84.30;100101.28;10460963;28;20044;-69